罗盘
风向 的 Revel Montgey Airport 13/31
风: 2 kt, 1 beaufort

1 kt

1 kt
改变
0 1.000 2.000 3.000 4.000 5.000
CAVOK
METAR LFCK 180900Z AUTO VRB02KT CAVOK 28/16 Q1020 NOSIG

METAR Revel Montgey Airport

Revel Montgey Airport是Moulins,法国中的小机场。 该机场有一条跑道: 13/31.

这份报告是针对2022年5月18日 11:00, 当地时间在Castres-Mazamet Airport进行的。

机场观察

可变方向的风很小或没有风。

天气为CAVOK。这意味着在5.000 ft或MSA(最低安全高度)以下(以较高者为准)以下没有云。这也意味着没有观测到积雨云或高耸的积云,可见度为10 km 或者更多或更高。此外,不会有雾,降雨或其他重要天气。

温度和风寒是28 °C。 热指数为28。 露点为16 °C,相对湿度为48%。 海平面上的气压为1020 hPa (QNH)。

白天

今天,太阳从06:24升起,在21:12降落。 这适用于Revel Montgey Airport,世界夏令时可能有所不同。 当地时间与世界标准时间之间的时差为+2 小时。 夏令时目前正在进行中。

公司介绍

我们没有关于这个机场的公司信息。

体会

到Vliegles.nl去找飞行课程,跳伞和其他飞行体验。 浏览页面,了解Revel Montgey Airport附近所有可用的活动。 你也可以使用搜索功能来寻找你所在地附近的特定飞行课程、跳伞或其他飞行体验。

您会帮助我们保持Metar-Taf.com正常运行吗?
您的贡献有助于网站的进一步开发并支付费用。

没有更多广告

您是捐款5美元还是更多?然后,我们将永远不会再向您展示广告,这是我们永恒的感谢!
捐赠前先登录

跑道

Id 标题 侧风 逆风
13/31 127°-307° 1 kt 1 kt

逆风成分最大的方向会被突出显示,并用于横风计算。 这并不一定意味着这个方向在使用。

温度 & 天气

温度 28 °C
露点 16 °C
相对湿度 48%
热度指数 28 °C
Kp-index 0  

公司介绍

新增公司

下载我们的应用程序

在您的手机和平板电脑上轻松访问所有航空天气。
有许多网站上没有的功能,如离线支持和个人机场列表。

Studio Eveline

Benalmádena
España